Airfield :
LOGIN :

Register | Disclaimer

   EN    FR    IT 

 










Legend :    VFR   Marginal VFR   IFR   Intensive IFR   Very Intensive IFR
Visi :
Ceiling :
>= 8 km
>= 3000ft
5 to 8 km
1000 to 3000 ft
1500m to 5 km
500 to 1000 ft
800 to 1500m
200 to 500 ft
< 800m
< 200 ft
Symbols :   Thunderstorms  Fog  Heavy snow  Heavy precipitations  Wind > 20 kt
SIGMETs :     Misc.  Thunderstorms  Icing  Turbulence  Mountain Waves  Volcanic Ashes






- Airport Elevation : 228 ft
- IATA code : OPO


LPPR - Porto Fr. Sa Carneiro

CURRENT METAR :
  • 092230Z 00000KT 3000 BR OVC002 17/17 Q1015

EXPIRED METARs :
  • 092200Z VRB02KT 3500 BR OVC003 17/17 Q1015
  • 092130Z 00000KT 2500 BR OVC002 17/16 Q1015
  • 092100Z 32004KT 290V350 3500 BR OVC002 17/16 Q1015
  • 092030Z 30004KT 260V330 3000 BR OVC002 17/16 Q1015
  • 092000Z 29003KT 6000 OVC004 17/16 Q1015
  • 091930Z 29004KT 260V320 6000 OVC005 17/16 Q1015

TAF TAF LPPR
Valid from the 09 at 18:00 until the 10 at 18:00 UTC


091700Z 0918/1018 26007KT 6000 SCT002 BKN005
BECMG 0918/0921 19005KT 3000 BR SCT001 BKN003
PROB40
TEMPO 0921/1008 VRB02KT 0200 FG VV001
BECMG 1009/1012 30008KT 9999 NSW FEW004 BKN008
BECMG 1014/1017 FEW010 SCT020



MET'MAP, your aeronautical weather chart ! - Copyright ORBIFLY December 2007 - Disclaimer

ORBIFLY MET'MAP TEAM :

Programming & Development : Alexandra Zaïnal
Concept & original design : Baudouin d'Aumeries
Assistance for programming : Marc-Olivier Méhu
Technical & hardware support : Manuel Goepfert

Contact : metmap@orbifly.com




SOURCES & CREDITS :

   NOAA